Time,TemperatureF,DewpointF,PressureIn,WindDirection,WindDirectionDegrees,WindSpeedMPH,WindSpeedGustMPH,Humidity,HourlyPrecipIn,Conditions,Clouds,dailyrainin,SolarRadiationWatts/m^2,SoftwareType,DateUTC
2013-10-02 00:02:00,81.7,73.4,30.01,East,94,2.0,2.0,76,0.00,,,0.00,0,Wunderground v.1.15,2013-10-02 04:02:00,
2013-10-02 00:08:00,81.6,73.7,30.01,ENE,71,4.0,8.0,77,0.00,,,0.00,0,Wunderground v.1.15,2013-10-02 04:08:00,
2013-10-02 00:12:00,81.6,73.7,30.01,ENE,67,3.0,12.0,77,0.00,,,0.00,0,Wunderground v.1.15,2013-10-02 04:12:00,
2013-10-02 00:14:00,81.6,73.7,30.01,East,80,3.0,12.0,77,0.00,,,0.00,0,Wunderground v.1.15,2013-10-02 04:14:00,
2013-10-02 00:16:00,81.6,73.7,30.01,East,98,3.0,12.0,77,0.00,,,0.00,0,Wunderground v.1.15,2013-10-02 04:16:00,
2013-10-02 00:18:00,81.6,73.7,30.01,NE,48,4.0,12.0,77,0.00,,,0.00,0,Wunderground v.1.15,2013-10-02 04:18:00,
2013-10-02 00:24:00,81.6,73.7,30.01,East,99,6.0,9.0,77,0.00,,,0.00,0,Wunderground v.1.15,2013-10-02 04:24:00,
2013-10-02 00:30:00,81.6,73.7,30.01,ENE,65,5.0,8.0,77,0.00,,,0.00,0,Wunderground v.1.15,2013-10-02 04:30:00,
2013-10-02 00:36:00,81.6,74.1,30.01,East,86,3.0,8.0,78,0.00,,,0.00,0,Wunderground v.1.15,2013-10-02 04:36:00,
2013-10-02 00:42:00,81.6,73.7,30.01,East,101,4.0,7.0,77,0.00,,,0.00,0,Wunderground v.1.15,2013-10-02 04:42:00,
2013-10-02 00:48:00,81.6,73.7,30.01,ESE,107,5.0,12.0,77,0.00,,,0.00,0,Wunderground v.1.15,2013-10-02 04:48:00,
2013-10-02 00:54:00,81.5,74.0,30.01,ENE,65,5.0,5.0,78,0.00,,,0.00,0,Wunderground v.1.15,2013-10-02 04:54:00,
2013-10-02 01:00:00,81.5,74.0,30.01,ENE,69,6.0,6.0,78,0.00,,,0.00,0,Wunderground v.1.15,2013-10-02 05:00:00,
2013-10-02 01:06:00,81.4,73.9,30.01,ENE,57,4.0,6.0,78,0.00,,,0.00,0,Wunderground v.1.15,2013-10-02 05:06:00,
2013-10-02 01:12:00,81.4,73.9,30.01,NE,41,3.0,9.0,78,0.00,,,0.00,0,Wunderground v.1.15,2013-10-02 05:12:00,
2013-10-02 01:18:00,81.4,73.9,30.02,ESE,111,4.0,9.0,78,0.00,,,0.00,0,Wunderground v.1.15,2013-10-02 05:18:00,
2013-10-02 01:24:00,81.4,74.3,30.02,ESE,102,4.0,7.0,79,0.00,,,0.00,0,Wunderground v.1.15,2013-10-02 05:24:00,
2013-10-02 01:30:00,81.4,74.3,30.01,East,94,4.0,6.0,79,0.00,,,0.00,0,Wunderground v.1.15,2013-10-02 05:30:00,
2013-10-02 01:36:00,81.5,74.4,30.01,ENE,64,6.0,9.0,79,0.00,,,0.00,0,Wunderground v.1.15,2013-10-02 05:36:00,
2013-10-02 01:42:00,81.5,74.4,30.01,East,95,6.0,6.0,79,0.00,,,0.00,0,Wunderground v.1.15,2013-10-02 05:42:00,
2013-10-02 01:48:00,81.5,74.4,30.01,ENE,78,4.0,9.0,79,0.00,,,0.00,0,Wunderground v.1.15,2013-10-02 05:48:00,
2013-10-02 01:54:00,81.4,74.3,30.01,ENE,69,4.0,6.0,79,0.00,,,0.00,0,Wunderground v.1.15,2013-10-02 05:54:00,
2013-10-02 02:00:00,81.4,74.3,30.00,East,84,4.0,4.0,79,0.00,,,0.00,0,Wunderground v.1.15,2013-10-02 06:00:00,
2013-10-02 02:06:00,81.4,74.3,30.00,East,94,4.0,7.0,79,0.00,,,0.00,0,Wunderground v.1.15,2013-10-02 06:06:00,
2013-10-02 02:12:00,81.4,74.3,30.00,ENE,69,4.0,7.0,79,0.00,,,0.00,0,Wunderground v.1.15,2013-10-02 06:12:00,
2013-10-02 02:18:00,81.3,74.5,30.00,East,80,3.0,7.0,80,0.00,,,0.00,0,Wunderground v.1.15,2013-10-02 06:18:00,
2013-10-02 02:24:00,81.2,74.4,30.00,East,79,2.0,6.0,80,0.00,,,0.00,0,Wunderground v.1.15,2013-10-02 06:24:00,
2013-10-02 02:30:00,81.1,74.3,30.00,NE,36,3.0,7.0,80,0.00,,,0.00,0,Wunderground v.1.15,2013-10-02 06:30:00,
2013-10-02 02:36:00,81.1,74.3,30.00,ENE,68,3.0,7.0,80,0.00,,,0.00,0,Wunderground v.1.15,2013-10-02 06:36:00,
2013-10-02 02:42:00,81.1,74.3,30.00,East,79,2.0,10.0,80,0.00,,,0.00,0,Wunderground v.1.15,2013-10-02 06:42:00,
2013-10-02 02:48:00,81.1,74.3,30.00,East,88,2.0,10.0,80,0.00,,,0.00,0,Wunderground v.1.15,2013-10-02 06:48:00,
2013-10-02 02:54:00,81.1,74.3,29.99,ENE,66,3.0,7.0,80,0.00,,,0.00,0,Wunderground v.1.15,2013-10-02 06:54:00,
2013-10-02 03:00:00,81.1,74.3,29.99,East,79,3.0,3.0,80,0.00,,,0.00,0,Wunderground v.1.15,2013-10-02 07:00:00,
2013-10-02 03:06:00,81.2,74.4,29.99,East,82,3.0,6.0,80,0.00,,,0.00,0,Wunderground v.1.15,2013-10-02 07:06:00,
2013-10-02 03:12:00,81.2,74.4,29.99,East,83,5.0,7.0,80,0.00,,,0.00,0,Wunderground v.1.15,2013-10-02 07:12:00,
2013-10-02 03:18:00,81.2,74.4,29.98,East,91,5.0,7.0,80,0.00,,,0.00,0,Wunderground v.1.15,2013-10-02 07:18:00,
2013-10-02 03:24:00,81.3,74.5,29.98,East,88,4.0,9.0,80,0.00,,,0.00,0,Wunderground v.1.15,2013-10-02 07:24:00,
2013-10-02 03:30:00,81.3,74.5,29.98,East,92,4.0,4.0,80,0.00,,,0.00,0,Wunderground v.1.15,2013-10-02 07:30:00,
2013-10-02 03:36:00,81.3,74.5,29.98,ENE,63,3.0,4.0,80,0.00,,,0.00,0,Wunderground v.1.15,2013-10-02 07:36:00,
2013-10-02 03:42:00,81.3,74.9,29.98,ESE,115,4.0,4.0,81,0.00,,,0.00,0,Wunderground v.1.15,2013-10-02 07:42:00,
2013-10-02 03:48:00,81.3,74.9,29.98,East,96,5.0,9.0,81,0.00,,,0.00,0,Wunderground v.1.15,2013-10-02 07:48:00,
2013-10-02 03:54:00,81.2,75.2,29.97,East,101,4.0,5.0,82,0.00,,,0.01,0,Wunderground v.1.15,2013-10-02 07:54:00,
2013-10-02 04:04:00,80.3,75.4,29.97,East,87,1.0,1.0,85,0.00,,,0.01,0,Wunderground v.1.15,2013-10-02 08:04:00,
2013-10-02 04:10:00,80.0,75.1,29.97,NE,42,2.0,8.0,85,0.00,,,0.01,0,Wunderground v.1.15,2013-10-02 08:10:00,
2013-10-02 04:16:00,80.0,75.1,29.97,ENE,61,4.0,8.0,85,0.00,,,0.01,0,Wunderground v.1.15,2013-10-02 08:16:00,
2013-10-02 04:22:00,80.1,74.8,29.97,ENE,74,3.0,4.0,84,0.00,,,0.01,0,Wunderground v.1.15,2013-10-02 08:22:00,
2013-10-02 04:28:00,80.2,75.3,29.97,ENE,73,3.0,10.0,85,0.00,,,0.01,0,Wunderground v.1.15,2013-10-02 08:28:00,
2013-10-02 04:34:00,80.4,75.5,29.97,ENE,75,2.0,4.0,85,0.00,,,0.01,0,Wunderground v.1.15,2013-10-02 08:34:00,
2013-10-02 04:40:00,80.3,75.0,29.96,ESE,112,1.0,5.0,84,0.00,,,0.01,0,Wunderground v.1.15,2013-10-02 08:40:00,
2013-10-02 04:46:00,80.4,75.1,29.96,NNE,24,2.0,5.0,84,0.00,,,0.01,0,Wunderground v.1.15,2013-10-02 08:46:00,
2013-10-02 04:52:00,80.5,74.9,29.96,ENE,73,2.0,7.0,83,0.00,,,0.01,0,Wunderground v.1.15,2013-10-02 08:52:00,
2013-10-02 04:58:00,80.6,74.6,29.96,ESE,115,3.0,7.0,82,0.00,,,0.01,0,Wunderground v.1.15,2013-10-02 08:58:00,
2013-10-02 05:04:00,80.7,74.7,29.96,ESE,110,3.0,4.0,82,0.00,,,0.01,0,Wunderground v.1.15,2013-10-02 09:04:00,
2013-10-02 05:10:00,80.8,74.8,29.96,NE,56,2.0,6.0,82,0.00,,,0.01,0,Wunderground v.1.15,2013-10-02 09:10:00,
2013-10-02 05:16:00,80.9,75.2,29.96,East,87,2.0,6.0,83,0.00,,,0.01,0,Wunderground v.1.15,2013-10-02 09:16:00,
2013-10-02 05:22:00,81.0,75.3,29.96,East,82,2.0,8.0,83,0.00,,,0.01,0,Wunderground v.1.15,2013-10-02 09:22:00,
2013-10-02 05:28:00,81.0,75.3,29.96,ENE,71,3.0,10.0,83,0.00,,,0.01,0,Wunderground v.1.15,2013-10-02 09:28:00,
2013-10-02 05:34:00,80.9,75.2,29.96,NE,40,3.0,4.0,83,0.00,,,0.01,0,Wunderground v.1.15,2013-10-02 09:34:00,
2013-10-02 05:40:00,80.8,75.5,29.96,NE,51,2.0,2.0,84,0.00,,,0.01,0,Wunderground v.1.15,2013-10-02 09:40:00,
2013-10-02 05:46:00,80.4,75.1,29.97,East,85,3.0,7.0,84,0.00,,,0.01,0,Wunderground v.1.15,2013-10-02 09:46:00,
2013-10-02 05:52:00,80.4,75.1,29.97,NE,55,5.0,7.0,84,0.00,,,0.01,0,Wunderground v.1.15,2013-10-02 09:52:00,
2013-10-02 05:58:00,80.5,75.2,29.97,NE,54,4.0,10.0,84,0.00,,,0.01,0,Wunderground v.1.15,2013-10-02 09:58:00,
2013-10-02 06:04:00,80.5,75.2,29.97,NNE,30,4.0,8.0,84,0.00,,,0.01,0,Wunderground v.1.15,2013-10-02 10:04:00,
2013-10-02 06:10:00,80.5,75.2,29.97,NE,49,3.0,3.0,84,0.00,,,0.01,0,Wunderground v.1.15,2013-10-02 10:10:00,
2013-10-02 06:16:00,80.5,75.2,29.97,SE,128,3.0,5.0,84,0.00,,,0.01,0,Wunderground v.1.15,2013-10-02 10:16:00,
2013-10-02 06:22:00,80.3,75.4,29.97,NE,46,3.0,3.0,85,0.22,,,0.03,0,Wunderground v.1.15,2013-10-02 10:22:00,
2013-10-02 06:28:00,79.8,75.6,29.97,East,84,3.0,3.0,87,0.69,,,0.06,0,Wunderground v.1.15,2013-10-02 10:28:00,
2013-10-02 06:34:00,79.5,75.3,29.97,East,98,3.0,8.0,87,0.11,,,0.07,0,Wunderground v.1.15,2013-10-02 10:34:00,
2013-10-02 06:40:00,79.4,75.5,29.97,East,101,2.0,9.0,88,0.05,,,0.07,0,Wunderground v.1.15,2013-10-02 10:40:00,
2013-10-02 06:46:00,79.2,75.3,29.98,East,86,1.0,9.0,88,0.00,,,0.07,0,Wunderground v.1.15,2013-10-02 10:46:00,
2013-10-02 06:52:00,79.1,75.6,29.98,ENE,63,0.0,3.0,89,0.35,,,0.11,0,Wunderground v.1.15,2013-10-02 10:52:00,
2013-10-02 06:58:00,78.9,75.4,29.98,ENE,65,1.0,11.0,89,0.22,,,0.13,0,Wunderground v.1.15,2013-10-02 10:58:00,
2013-10-02 07:04:00,78.7,75.2,29.98,ENE,76,2.0,8.0,89,0.13,,,0.14,0,Wunderground v.1.15,2013-10-02 11:04:00,
2013-10-02 07:10:00,78.9,75.7,29.98,NE,55,3.0,3.0,90,0.06,,,0.14,0,Wunderground v.1.15,2013-10-02 11:10:00,
2013-10-02 07:16:00,78.9,75.7,29.98,East,83,4.0,9.0,90,0.04,,,0.14,0,Wunderground v.1.15,2013-10-02 11:16:00,
2013-10-02 07:22:00,78.9,75.4,29.98,East,91,4.0,5.0,89,0.00,,,0.14,5,Wunderground v.1.15,2013-10-02 11:22:00,
2013-10-02 07:28:00,78.9,75.4,29.99,ENE,77,3.0,8.0,89,0.00,,,0.14,9,Wunderground v.1.15,2013-10-02 11:28:00,
2013-10-02 07:34:00,79.1,75.6,29.99,East,79,4.0,11.0,89,0.00,,,0.14,11,Wunderground v.1.15,2013-10-02 11:34:00,
2013-10-02 07:40:00,79.1,75.6,29.99,NE,53,4.0,4.0,89,0.00,,,0.14,18,Wunderground v.1.15,2013-10-02 11:40:00,
2013-10-02 07:48:00,79.2,75.7,29.99,NE,55,3.0,9.0,89,0.00,,,0.14,25,Wunderground v.1.15,2013-10-02 11:48:00,
2013-10-02 07:54:00,79.3,75.4,29.99,East,94,2.0,3.0,88,0.00,,,0.14,28,Wunderground v.1.15,2013-10-02 11:54:00,
2013-10-02 08:00:00,79.3,75.4,29.99,ENE,65,2.0,2.0,88,0.00,,,0.14,33,Wunderground v.1.15,2013-10-02 12:00:00,
2013-10-02 08:06:00,79.3,75.4,29.99,NE,47,3.0,6.0,88,0.00,,,0.14,39,Wunderground v.1.15,2013-10-02 12:06:00,
2013-10-02 08:12:00,79.5,75.3,29.99,SE,124,5.0,5.0,87,0.00,,,0.14,135,Wunderground v.1.15,2013-10-02 12:12:00,
2013-10-02 08:18:00,79.8,75.6,29.99,NE,51,4.0,5.0,87,0.00,,,0.14,56,Wunderground v.1.15,2013-10-02 12:18:00,
2013-10-02 08:24:00,80.0,75.8,30.00,East,101,3.0,10.0,87,0.00,,,0.14,51,Wunderground v.1.15,2013-10-02 12:24:00,
2013-10-02 08:30:00,80.0,75.4,30.00,East,88,5.0,8.0,86,0.00,,,0.14,58,Wunderground v.1.15,2013-10-02 12:30:00,
2013-10-02 08:36:00,80.2,75.6,30.00,East,89,5.0,8.0,86,0.00,,,0.14,33,Wunderground v.1.15,2013-10-02 12:36:00,
2013-10-02 08:42:00,80.2,75.6,30.00,East,84,2.0,3.0,86,0.00,,,0.14,42,Wunderground v.1.15,2013-10-02 12:42:00,
2013-10-02 08:48:00,80.2,75.6,30.00,East,92,1.0,3.0,86,0.00,,,0.14,30,Wunderground v.1.15,2013-10-02 12:48:00,
2013-10-02 08:54:00,80.2,75.6,30.00,East,85,1.0,9.0,86,0.00,,,0.14,16,Wunderground v.1.15,2013-10-02 12:54:00,
2013-10-02 09:00:00,79.9,75.3,30.01,East,84,3.0,3.0,86,0.00,,,0.14,32,Wunderground v.1.15,2013-10-02 13:00:00,
2013-10-02 09:06:00,79.4,75.2,30.01,ENE,75,4.0,7.0,87,2.43,,,0.21,28,Wunderground v.1.15,2013-10-02 13:06:00,
2013-10-02 09:12:00,78.6,74.7,30.01,ESE,115,2.0,2.0,88,0.18,,,0.25,32,Wunderground v.1.15,2013-10-02 13:12:00,
2013-10-02 09:18:00,78.3,75.1,30.01,ESE,111,1.0,4.0,90,0.56,,,0.28,26,Wunderground v.1.15,2013-10-02 13:18:00,
2013-10-02 09:24:00,78.1,74.9,30.01,ESE,107,3.0,10.0,90,0.46,,,0.31,28,Wunderground v.1.15,2013-10-02 13:24:00,
2013-10-02 09:30:00,77.8,75.0,30.01,ESE,107,4.0,4.0,91,0.16,,,0.33,39,Wunderground v.1.15,2013-10-02 13:30:00,
2013-10-02 09:36:00,77.8,75.3,30.01,ESE,106,2.0,4.0,92,0.10,,,0.34,35,Wunderground v.1.15,2013-10-02 13:36:00,
2013-10-02 09:42:00,77.8,75.3,30.02,NE,41,0.0,0.0,92,0.06,,,0.34,32,Wunderground v.1.15,2013-10-02 13:42:00,
2013-10-02 09:48:00,77.9,75.1,30.01,ENE,63,3.0,13.0,91,0.04,,,0.34,86,Wunderground v.1.15,2013-10-02 13:48:00,
2013-10-02 09:54:00,78.3,75.1,30.02,ESE,119,4.0,7.0,90,0.00,,,0.34,25,Wunderground v.1.15,2013-10-02 13:54:00,
2013-10-02 10:00:00,78.4,75.2,30.02,ENE,57,5.0,9.0,90,1.25,,,0.36,9,Wunderground v.1.15,2013-10-02 14:00:00,
2013-10-02 10:06:00,77.5,74.3,30.02,South,180,8.0,12.0,90,0.52,,,0.49,7,Wunderground v.1.15,2013-10-02 14:06:00,
2013-10-02 10:12:00,76.9,74.1,30.02,SSW,202,8.0,11.0,91,0.11,,,0.50,14,Wunderground v.1.15,2013-10-02 14:12:00,
2013-10-02 10:18:00,76.9,74.4,30.02,SE,141,6.0,11.0,92,0.08,,,0.50,18,Wunderground v.1.15,2013-10-02 14:18:00,
2013-10-02 10:24:00,77.3,75.1,30.02,ESE,103,4.0,5.0,93,0.06,,,0.51,16,Wunderground v.1.15,2013-10-02 14:24:00,
2013-10-02 10:30:00,77.4,75.2,30.02,SE,130,2.0,2.0,93,0.06,,,0.51,9,Wunderground v.1.15,2013-10-02 14:30:00,
2013-10-02 10:36:00,77.2,74.7,30.02,ESE,106,2.0,9.0,92,0.05,,,0.52,11,Wunderground v.1.15,2013-10-02 14:36:00,
2013-10-02 10:42:00,76.7,74.2,30.03,ESE,113,5.0,7.0,92,0.05,,,0.52,11,Wunderground v.1.15,2013-10-02 14:42:00,
2013-10-02 10:48:00,76.7,74.2,30.03,ESE,105,7.0,14.0,92,0.80,,,0.57,9,Wunderground v.1.15,2013-10-02 14:48:00,
2013-10-02 10:54:00,76.1,73.6,30.04,ESE,105,9.0,11.0,92,1.15,,,0.68,12,Wunderground v.1.15,2013-10-02 14:54:00,
2013-10-02 11:00:00,75.7,73.5,30.04,SE,130,6.0,6.0,93,3.29,,,0.92,12,Wunderground v.1.15,2013-10-02 15:00:00,
2013-10-02 11:06:00,75.5,73.3,30.04,East,90,5.0,8.0,93,0.88,,,1.07,19,Wunderground v.1.15,2013-10-02 15:06:00,
2013-10-02 11:12:00,75.5,73.3,30.03,ENE,67,2.0,3.0,93,0.42,,,1.12,26,Wunderground v.1.15,2013-10-02 15:12:00,
2013-10-02 11:18:00,75.5,73.7,30.03,ENE,59,0.0,3.0,94,0.31,,,1.15,35,Wunderground v.1.15,2013-10-02 15:18:00,
2013-10-02 11:24:00,75.5,73.7,30.03,ENE,59,0.0,0.0,94,0.09,,,1.15,33,Wunderground v.1.15,2013-10-02 15:24:00,
2013-10-02 11:30:00,75.6,73.8,30.02,ENE,59,0.0,0.0,94,0.08,,,1.16,23,Wunderground v.1.15,2013-10-02 15:30:00,
2013-10-02 11:36:00,75.8,73.9,30.03,ENE,59,0.0,0.0,94,0.05,,,1.16,26,Wunderground v.1.15,2013-10-02 15:36:00,
2013-10-02 11:42:00,76.1,74.2,30.03,ENE,60,0.0,0.0,94,0.00,,,1.16,42,Wunderground v.1.15,2013-10-02 15:42:00,
2013-10-02 11:48:00,76.4,74.5,30.02,NE,55,1.0,1.0,94,0.00,,,1.16,67,Wunderground v.1.15,2013-10-02 15:48:00,
2013-10-02 11:54:00,76.6,74.7,30.03,ENE,69,2.0,3.0,94,0.00,,,1.16,86,Wunderground v.1.15,2013-10-02 15:54:00,
2013-10-02 12:00:00,76.8,74.9,30.03,East,83,1.0,1.0,94,0.00,,,1.16,74,Wunderground v.1.15,2013-10-02 16:00:00,
2013-10-02 12:06:00,77.1,74.9,30.03,ESE,106,1.0,3.0,93,0.00,,,1.16,65,Wunderground v.1.15,2013-10-02 16:06:00,
2013-10-02 12:12:00,77.5,75.0,30.03,NE,49,2.0,4.0,92,0.00,,,1.16,74,Wunderground v.1.15,2013-10-02 16:12:00,
2013-10-02 12:18:00,77.9,75.1,30.03,ENE,69,2.0,5.0,91,0.00,,,1.16,60,Wunderground v.1.15,2013-10-02 16:18:00,
2013-10-02 12:24:00,78.2,75.0,30.03,NE,52,1.0,7.0,90,0.00,,,1.16,74,Wunderground v.1.15,2013-10-02 16:24:00,
2013-10-02 12:30:00,78.5,74.6,30.03,NE,37,2.0,2.0,88,0.00,,,1.17,88,Wunderground v.1.15,2013-10-02 16:30:00,
2013-10-02 12:36:00,78.8,74.6,30.02,East,87,2.0,2.0,87,0.00,,,1.17,95,Wunderground v.1.15,2013-10-02 16:36:00,
2013-10-02 12:42:00,79.0,74.8,30.02,ENE,59,2.0,6.0,87,0.00,,,1.17,90,Wunderground v.1.15,2013-10-02 16:42:00,
2013-10-02 12:48:00,79.3,74.7,30.02,NE,56,3.0,6.0,86,0.00,,,1.17,60,Wunderground v.1.15,2013-10-02 16:48:00,
2013-10-02 12:54:00,79.3,74.4,30.02,ENE,78,2.0,3.0,85,0.00,,,1.17,58,Wunderground v.1.15,2013-10-02 16:54:00,
2013-10-02 13:00:00,79.5,74.6,30.02,NE,49,3.0,7.0,85,0.00,,,1.17,100,Wunderground v.1.15,2013-10-02 17:00:00,
2013-10-02 13:06:00,79.7,74.4,30.01,NE,51,3.0,10.0,84,0.00,,,1.17,121,Wunderground v.1.15,2013-10-02 17:06:00,
2013-10-02 13:12:00,80.0,74.0,30.01,NE,51,4.0,5.0,82,0.00,,,1.17,114,Wunderground v.1.15,2013-10-02 17:12:00,
2013-10-02 13:18:00,80.3,74.3,30.01,East,83,3.0,7.0,82,0.00,,,1.17,120,Wunderground v.1.15,2013-10-02 17:18:00,
2013-10-02 13:24:00,80.5,74.5,30.02,ENE,69,2.0,3.0,82,0.00,,,1.17,137,Wunderground v.1.15,2013-10-02 17:24:00,
2013-10-02 13:30:00,80.6,74.6,30.02,NE,53,2.0,2.0,82,0.00,,,1.17,125,Wunderground v.1.15,2013-10-02 17:30:00,
2013-10-02 13:36:00,80.7,74.3,30.01,ENE,67,3.0,3.0,81,0.00,,,1.17,137,Wunderground v.1.15,2013-10-02 17:36:00,
2013-10-02 13:42:00,80.9,74.5,30.01,ESE,107,2.0,3.0,81,0.00,,,1.17,169,Wunderground v.1.15,2013-10-02 17:42:00,
2013-10-02 13:48:00,81.0,74.6,30.01,ENE,71,4.0,4.0,81,0.00,,,1.17,109,Wunderground v.1.15,2013-10-02 17:48:00,
2013-10-02 13:54:00,81.0,74.6,30.01,ENE,78,3.0,7.0,81,0.00,,,1.17,109,Wunderground v.1.15,2013-10-02 17:54:00,
2013-10-02 14:00:00,81.0,74.6,30.01,ENE,70,3.0,9.0,81,0.00,,,1.17,70,Wunderground v.1.15,2013-10-02 18:00:00,
2013-10-02 14:06:00,81.0,75.0,30.01,East,90,2.0,9.0,82,0.00,,,1.17,67,Wunderground v.1.15,2013-10-02 18:06:00,
2013-10-02 14:12:00,80.4,74.8,30.01,ESE,106,5.0,8.0,83,0.00,,,1.17,69,Wunderground v.1.15,2013-10-02 18:12:00,
2013-10-02 14:18:00,80.0,74.7,30.00,SE,144,6.0,8.0,84,0.00,,,1.17,93,Wunderground v.1.15,2013-10-02 18:18:00,
2013-10-02 14:24:00,79.8,74.5,30.00,East,98,5.0,7.0,84,0.00,,,1.17,65,Wunderground v.1.15,2013-10-02 18:24:00,
2013-10-02 14:30:00,79.4,74.8,30.00,SE,128,4.0,4.0,86,0.27,,,1.19,58,Wunderground v.1.15,2013-10-02 18:30:00,
2013-10-02 14:36:00,78.7,74.8,30.00,SE,130,5.0,9.0,88,0.12,,,1.21,72,Wunderground v.1.15,2013-10-02 18:36:00,
2013-10-02 14:42:00,78.1,74.6,30.00,SE,125,6.0,7.0,89,0.09,,,1.21,77,Wunderground v.1.15,2013-10-02 18:42:00,
2013-10-02 14:48:00,78.0,74.8,29.99,East,88,6.0,7.0,90,0.05,,,1.21,135,Wunderground v.1.15,2013-10-02 18:48:00,
2013-10-02 14:54:00,78.1,74.9,29.99,ESE,104,6.0,11.0,90,0.00,,,1.21,132,Wunderground v.1.15,2013-10-02 18:54:00,
2013-10-02 15:00:00,77.9,74.4,29.99,East,94,5.0,5.0,89,0.00,,,1.21,153,Wunderground v.1.15,2013-10-02 19:00:00,
2013-10-02 15:06:00,77.9,74.4,29.99,East,86,4.0,9.0,89,0.00,,,1.22,149,Wunderground v.1.15,2013-10-02 19:06:00,
2013-10-02 15:12:00,77.9,74.7,29.98,East,83,4.0,5.0,90,0.00,,,1.22,171,Wunderground v.1.15,2013-10-02 19:12:00,
2013-10-02 15:18:00,78.1,74.9,29.98,ESE,113,2.0,5.0,90,0.00,,,1.22,188,Wunderground v.1.15,2013-10-02 19:18:00,
2013-10-02 15:24:00,78.4,75.6,29.98,NE,42,0.0,1.0,91,0.00,,,1.22,211,Wunderground v.1.15,2013-10-02 19:24:00,
2013-10-02 15:30:00,78.7,75.8,29.98,NE,48,0.0,0.0,91,0.00,,,1.22,188,Wunderground v.1.15,2013-10-02 19:30:00,
2013-10-02 15:36:00,79.0,76.1,29.98,NE,52,0.0,0.0,91,0.00,,,1.22,253,Wunderground v.1.15,2013-10-02 19:36:00,
2013-10-02 15:42:00,79.5,76.3,29.97,East,90,0.0,0.0,90,0.00,,,1.22,459,Wunderground v.1.15,2013-10-02 19:42:00,
2013-10-02 15:48:00,80.0,76.8,29.97,ESE,109,0.0,0.0,90,0.00,,,1.22,202,Wunderground v.1.15,2013-10-02 19:48:00,
2013-10-02 15:54:00,80.2,76.7,29.97,ESE,102,0.0,0.0,89,0.00,,,1.22,151,Wunderground v.1.15,2013-10-02 19:54:00,
2013-10-02 16:00:00,80.2,76.3,29.97,East,91,1.0,1.0,88,0.00,,,1.22,185,Wunderground v.1.15,2013-10-02 20:00:00,
2013-10-02 16:06:00,80.3,76.1,29.97,NE,44,1.0,1.0,87,0.00,,,1.22,156,Wunderground v.1.15,2013-10-02 20:06:00,
2013-10-02 16:12:00,80.5,75.9,29.97,ENE,65,1.0,1.0,86,0.00,,,1.22,120,Wunderground v.1.15,2013-10-02 20:12:00,
2013-10-02 16:18:00,80.6,75.3,29.96,East,90,1.0,9.0,84,0.00,,,1.22,120,Wunderground v.1.15,2013-10-02 20:18:00,
2013-10-02 16:24:00,80.7,75.4,29.97,ENE,64,2.0,4.0,84,0.00,,,1.22,109,Wunderground v.1.15,2013-10-02 20:24:00,
2013-10-02 16:30:00,80.9,75.2,29.97,ESE,103,2.0,2.0,83,0.00,,,1.22,84,Wunderground v.1.15,2013-10-02 20:30:00,
2013-10-02 16:36:00,81.0,75.3,29.97,ENE,65,1.0,4.0,83,0.00,,,1.22,83,Wunderground v.1.15,2013-10-02 20:36:00,
2013-10-02 16:42:00,81.0,75.0,29.97,ENE,63,1.0,7.0,82,0.00,,,1.22,39,Wunderground v.1.15,2013-10-02 20:42:00,
2013-10-02 16:48:00,81.0,75.0,29.97,East,83,2.0,7.0,82,0.00,,,1.22,44,Wunderground v.1.15,2013-10-02 20:48:00,
2013-10-02 16:54:00,81.1,75.1,29.97,East,83,2.0,8.0,82,0.00,,,1.22,69,Wunderground v.1.15,2013-10-02 20:54:00,
2013-10-02 17:00:00,81.1,74.7,29.98,ENE,70,2.0,3.0,81,0.00,,,1.22,65,Wunderground v.1.15,2013-10-02 21:00:00,
2013-10-02 17:06:00,81.2,74.4,29.98,ENE,63,2.0,3.0,80,0.00,,,1.22,62,Wunderground v.1.15,2013-10-02 21:06:00,
2013-10-02 17:12:00,81.3,74.5,29.98,NE,50,2.0,6.0,80,0.00,,,1.22,93,Wunderground v.1.15,2013-10-02 21:12:00,
2013-10-02 17:18:00,81.4,74.3,29.98,East,101,1.0,6.0,79,0.00,,,1.22,100,Wunderground v.1.15,2013-10-02 21:18:00,
2013-10-02 17:24:00,81.5,74.4,29.98,East,82,0.0,7.0,79,0.00,,,1.22,105,Wunderground v.1.15,2013-10-02 21:24:00,
2013-10-02 17:30:00,81.6,74.5,29.98,ENE,78,2.0,2.0,79,0.00,,,1.22,109,Wunderground v.1.15,2013-10-02 21:30:00,
2013-10-02 17:36:00,81.6,74.1,29.98,East,82,2.0,2.0,78,0.00,,,1.22,104,Wunderground v.1.15,2013-10-02 21:36:00,
2013-10-02 17:42:00,81.7,74.2,29.98,East,84,1.0,7.0,78,0.00,,,1.22,86,Wunderground v.1.15,2013-10-02 21:42:00,
2013-10-02 17:48:00,81.7,74.5,29.98,East,94,2.0,7.0,79,0.00,,,1.22,69,Wunderground v.1.15,2013-10-02 21:48:00,
2013-10-02 17:54:00,81.7,74.9,29.98,NE,51,2.0,2.0,80,0.00,,,1.22,69,Wunderground v.1.15,2013-10-02 21:54:00,
2013-10-02 18:00:00,81.6,74.8,29.98,NE,40,2.0,6.0,80,0.00,,,1.22,65,Wunderground v.1.15,2013-10-02 22:00:00,
2013-10-02 18:06:00,81.6,74.8,29.98,ENE,67,2.0,6.0,80,0.00,,,1.22,60,Wunderground v.1.15,2013-10-02 22:06:00,
2013-10-02 18:12:00,81.5,75.1,29.98,NNE,32,1.0,4.0,81,0.00,,,1.22,49,Wunderground v.1.15,2013-10-02 22:12:00,
2013-10-02 18:18:00,81.5,75.1,29.98,East,87,1.0,9.0,81,0.00,,,1.22,32,Wunderground v.1.15,2013-10-02 22:18:00,
2013-10-02 18:24:00,81.5,75.1,29.98,East,84,2.0,2.0,81,0.00,,,1.22,32,Wunderground v.1.15,2013-10-02 22:24:00,
2013-10-02 18:30:00,81.4,75.4,29.98,NE,55,1.0,1.0,82,0.00,,,1.22,28,Wunderground v.1.15,2013-10-02 22:30:00,
2013-10-02 18:36:00,81.4,75.0,29.98,East,92,2.0,6.0,81,0.00,,,1.22,25,Wunderground v.1.15,2013-10-02 22:36:00,
2013-10-02 18:42:00,81.3,74.9,29.98,NE,46,2.0,2.0,81,0.00,,,1.22,19,Wunderground v.1.15,2013-10-02 22:42:00,
2013-10-02 18:48:00,81.2,74.8,29.98,East,83,1.0,6.0,81,0.00,,,1.22,12,Wunderground v.1.15,2013-10-02 22:48:00,
2013-10-02 18:54:00,81.2,74.8,29.98,ENE,68,1.0,1.0,81,0.00,,,1.22,7,Wunderground v.1.15,2013-10-02 22:54:00,
2013-10-02 19:00:00,81.1,74.7,29.98,ENE,63,0.0,5.0,81,0.00,,,1.22,0,Wunderground v.1.15,2013-10-02 23:00:00,
2013-10-02 19:06:00,81.1,74.7,29.98,ENE,60,0.0,7.0,81,0.00,,,1.22,0,Wunderground v.1.15,2013-10-02 23:06:00,
2013-10-02 19:12:00,81.1,74.3,29.99,NE,44,1.0,1.0,80,0.00,,,1.22,0,Wunderground v.1.15,2013-10-02 23:12:00,
2013-10-02 19:18:00,81.2,74.4,29.99,NNE,32,2.0,2.0,80,0.00,,,1.22,0,Wunderground v.1.15,2013-10-02 23:18:00,
2013-10-02 19:24:00,81.2,74.4,29.99,ENE,73,1.0,1.0,80,0.00,,,1.22,0,Wunderground v.1.15,2013-10-02 23:24:00,
2013-10-02 19:30:00,81.2,74.1,29.99,NE,53,1.0,1.0,79,0.00,,,1.22,0,Wunderground v.1.15,2013-10-02 23:30:00,
2013-10-02 19:36:00,81.2,73.3,30.00,East,98,1.0,3.0,77,0.00,,,1.22,0,Wunderground v.1.15,2013-10-02 23:36:00,
2013-10-02 19:42:00,81.3,73.0,30.00,ENE,57,1.0,3.0,76,0.00,,,1.22,0,Wunderground v.1.15,2013-10-02 23:42:00,
2013-10-02 19:48:00,81.4,73.1,30.00,NE,47,1.0,3.0,76,0.00,,,1.22,0,Wunderground v.1.15,2013-10-02 23:48:00,
2013-10-02 19:54:00,81.4,73.1,30.00,NE,49,0.0,5.0,76,0.00,,,1.22,0,Wunderground v.1.15,2013-10-02 23:54:00,
2013-10-02 19:58:00,81.4,72.7,30.00,ENE,60,1.0,5.0,75,0.00,,,1.22,0,Wunderground v.1.15,2013-10-02 23:58:00,
2013-10-02 20:04:00,81.5,72.8,30.00,ESE,106,1.0,1.0,75,0.00,,,1.22,0,Wunderground v.1.15,2013-10-03 00:04:00,
2013-10-02 20:10:00,81.5,72.8,30.00,East,80,0.0,0.0,75,0.00,,,1.22,0,Wunderground v.1.15,2013-10-03 00:10:00,
2013-10-02 20:16:00,81.6,73.3,30.01,ENE,65,0.0,0.0,76,0.00,,,1.22,0,Wunderground v.1.15,2013-10-03 00:16:00,
2013-10-02 20:22:00,81.6,73.3,30.01,ENE,63,0.0,0.0,76,0.00,,,1.22,0,Wunderground v.1.15,2013-10-03 00:22:00,
2013-10-02 20:28:00,81.6,73.7,30.01,ENE,76,0.0,4.0,77,0.00,,,1.22,0,Wunderground v.1.15,2013-10-03 00:28:00,
2013-10-02 20:34:00,81.6,73.7,30.01,East,80,0.0,0.0,77,0.00,,,1.22,0,Wunderground v.1.15,2013-10-03 00:34:00,
2013-10-02 20:40:00,81.6,73.7,30.00,ENE,59,0.0,0.0,77,0.00,,,1.22,0,Wunderground v.1.15,2013-10-03 00:40:00,
2013-10-02 20:46:00,81.6,73.7,30.00,East,80,0.0,7.0,77,0.00,,,1.22,0,Wunderground v.1.15,2013-10-03 00:46:00,
2013-10-02 20:52:00,81.6,73.7,30.01,East,86,0.0,0.0,77,0.00,,,1.22,0,Wunderground v.1.15,2013-10-03 00:52:00,
2013-10-02 20:58:00,81.5,73.6,30.01,ESE,110,0.0,8.0,77,0.00,,,1.22,0,Wunderground v.1.15,2013-10-03 00:58:00,
2013-10-02 21:04:00,81.5,74.0,30.01,East,89,0.0,0.0,78,0.00,,,1.22,0,Wunderground v.1.15,2013-10-03 01:04:00,
2013-10-02 21:10:00,81.5,74.4,30.02,NE,55,0.0,2.0,79,0.00,,,1.22,0,Wunderground v.1.15,2013-10-03 01:10:00,
2013-10-02 21:16:00,81.5,74.7,30.02,ENE,69,1.0,2.0,80,0.00,,,1.22,0,Wunderground v.1.15,2013-10-03 01:16:00,
2013-10-02 21:22:00,81.4,74.6,30.02,ENE,65,0.0,4.0,80,0.00,,,1.22,0,Wunderground v.1.15,2013-10-03 01:22:00,
2013-10-02 21:28:00,81.4,74.6,30.02,NE,49,0.0,4.0,80,0.00,,,1.22,0,Wunderground v.1.15,2013-10-03 01:28:00,
2013-10-02 21:34:00,81.3,74.5,30.02,ENE,66,1.0,4.0,80,0.00,,,1.22,0,Wunderground v.1.15,2013-10-03 01:34:00,
2013-10-02 21:40:00,81.3,74.5,30.02,ENE,67,1.0,1.0,80,0.00,,,1.22,0,Wunderground v.1.15,2013-10-03 01:40:00,
2013-10-02 21:46:00,81.2,74.4,30.02,ENE,71,1.0,3.0,80,0.00,,,1.22,0,Wunderground v.1.15,2013-10-03 01:46:00,
2013-10-02 21:52:00,81.2,74.4,30.03,NE,42,0.0,0.0,80,0.00,,,1.22,0,Wunderground v.1.15,2013-10-03 01:52:00,
2013-10-02 21:58:00,81.2,74.4,30.03,NE,46,1.0,1.0,80,0.00,,,1.22,0,Wunderground v.1.15,2013-10-03 01:58:00,
2013-10-02 22:04:00,81.2,74.4,30.03,East,79,0.0,0.0,80,0.00,,,1.22,0,Wunderground v.1.15,2013-10-03 02:04:00,
2013-10-02 22:10:00,81.2,74.4,30.03,East,83,1.0,3.0,80,0.00,,,1.22,0,Wunderground v.1.15,2013-10-03 02:10:00,
2013-10-02 22:16:00,81.1,74.3,30.03,NE,36,1.0,3.0,80,0.00,,,1.22,0,Wunderground v.1.15,2013-10-03 02:16:00,
2013-10-02 22:22:00,81.1,74.7,30.03,ENE,58,1.0,1.0,81,0.00,,,1.22,0,Wunderground v.1.15,2013-10-03 02:22:00,
2013-10-02 22:26:00,81.1,74.7,30.03,ENE,76,2.0,4.0,81,0.00,,,1.22,0,Wunderground v.1.15,2013-10-03 02:26:00,
2013-10-02 22:32:00,81.1,74.7,30.04,ENE,61,1.0,1.0,81,0.00,,,1.22,0,Wunderground v.1.15,2013-10-03 02:32:00,
2013-10-02 22:38:00,81.1,74.7,30.04,NE,38,1.0,1.0,81,0.00,,,1.22,0,Wunderground v.1.15,2013-10-03 02:38:00,
2013-10-02 22:44:00,81.2,75.2,30.04,ENE,59,1.0,1.0,82,0.00,,,1.22,0,Wunderground v.1.15,2013-10-03 02:44:00,
2013-10-02 22:50:00,81.2,75.2,30.04,East,84,0.0,0.0,82,0.00,,,1.22,0,Wunderground v.1.15,2013-10-03 02:50:00,
2013-10-02 22:56:00,81.3,75.3,30.04,East,84,1.0,1.0,82,0.00,,,1.22,0,Wunderground v.1.15,2013-10-03 02:56:00,
2013-10-02 23:02:00,81.3,75.3,30.04,East,84,0.0,1.0,82,0.00,,,1.22,0,Wunderground v.1.15,2013-10-03 03:02:00,
2013-10-02 23:08:00,81.3,75.3,30.04,East,82,1.0,8.0,82,0.00,,,1.22,0,Wunderground v.1.15,2013-10-03 03:08:00,
2013-10-02 23:14:00,81.2,75.2,30.04,ESE,121,1.0,1.0,82,0.00,,,1.22,0,Wunderground v.1.15,2013-10-03 03:14:00,
2013-10-02 23:20:00,81.2,75.2,30.04,ENE,67,1.0,1.0,82,0.00,,,1.22,0,Wunderground v.1.15,2013-10-03 03:20:00,
2013-10-02 23:26:00,81.1,75.1,30.04,East,92,1.0,1.0,82,0.00,,,1.22,0,Wunderground v.1.15,2013-10-03 03:26:00,
2013-10-02 23:32:00,81.1,74.7,30.04,East,88,0.0,0.0,81,0.00,,,1.22,0,Wunderground v.1.15,2013-10-03 03:32:00,
2013-10-02 23:38:00,81.1,75.1,30.04,East,88,0.0,0.0,82,0.00,,,1.22,0,Wunderground v.1.15,2013-10-03 03:38:00,
2013-10-02 23:46:00,81.1,75.4,30.04,NE,52,0.0,4.0,83,0.00,,,1.22,0,Wunderground v.1.15,2013-10-03 03:46:00,
2013-10-02 23:52:00,81.1,75.4,30.04,ENE,72,1.0,1.0,83,0.00,,,1.22,0,Wunderground v.1.15,2013-10-03 03:52:00,
2013-10-02 23:58:00,81.0,75.3,30.04,East,88,0.0,9.0,83,0.00,,,1.22,0,Wunderground v.1.15,2013-10-03 03:58:00,